createdAt,value
2019-02-16T00:00:09.527Z,58.76
2019-02-16T00:02:37.435Z,58.12
2019-02-16T00:05:05.612Z,59.14
2019-02-16T00:07:33.539Z,59.85
2019-02-16T00:10:01.469Z,60.02
2019-02-16T00:12:29.337Z,60.31
2019-02-16T00:14:57.223Z,59.91
2019-02-16T00:17:25.138Z,60.05
2019-02-16T00:19:52.963Z,60.26
2019-02-16T00:22:21.061Z,60.08
2019-02-16T00:24:48.885Z,60.35
2019-02-16T00:27:16.747Z,60.47
2019-02-16T00:29:44.628Z,59.95
2019-02-16T00:32:12.507Z,60.28
2019-02-16T00:34:40.406Z,60.05
2019-02-16T00:37:08.351Z,60.57
2019-02-16T00:39:36.463Z,61.02
2019-02-16T00:42:04.347Z,61.09
2019-02-16T00:44:32.323Z,60.31
2019-02-16T00:47:00.169Z,60.08
2019-02-16T00:49:28.037Z,60.49
2019-02-16T00:51:56.178Z,61.04
2019-02-16T00:54:24.030Z,61.45
2019-02-16T00:56:51.956Z,61.49
2019-02-16T00:59:19.832Z,61.88
2019-02-16T01:01:47.696Z,61.81
2019-02-16T01:04:15.551Z,61.65
2019-02-16T01:06:43.427Z,61.72
2019-02-16T01:09:11.283Z,61.84
2019-02-16T01:11:39.147Z,61.88
2019-02-16T01:14:07.123Z,62.34
2019-02-16T01:16:35.022Z,62.37
2019-02-16T01:19:02.859Z,62.21
2019-02-16T01:21:30.717Z,62.24
2019-02-16T01:23:58.560Z,62.31
2019-02-16T01:26:26.702Z,62.18
2019-02-16T01:28:54.597Z,62.10
2019-02-16T01:31:22.465Z,62.38
2019-02-16T01:33:50.353Z,62.15
2019-02-16T01:36:18.319Z,62.19
2019-02-16T01:38:46.187Z,62.66
2019-02-16T01:41:14.448Z,62.46
2019-02-16T01:43:42.263Z,62.29
2019-02-16T01:46:10.140Z,62.26
2019-02-16T01:48:38.049Z,62.62
2019-02-16T01:51:05.885Z,63.07
2019-02-16T01:53:33.702Z,63.42
2019-02-16T01:56:01.628Z,63.07
2019-02-16T01:58:29.473Z,62.93
2019-02-16T02:00:57.333Z,62.76
2019-02-16T02:03:25.184Z,62.66
2019-02-16T02:05:53.010Z,63.34
2019-02-16T02:08:20.878Z,63.36
2019-02-16T02:10:48.766Z,63.42
2019-02-16T02:13:16.620Z,64.43
2019-02-16T02:15:44.483Z,64.61
2019-02-16T02:18:12.343Z,64.50
2019-02-16T02:20:41.169Z,64.16
2019-02-16T02:23:09.001Z,64.49
2019-02-16T02:25:36.935Z,64.40
2019-02-16T02:28:04.797Z,64.70
2019-02-16T02:30:33.972Z,64.18
2019-02-16T02:33:02.004Z,64.51
2019-02-16T02:35:29.850Z,64.63
2019-02-16T02:37:57.684Z,64.26
2019-02-16T02:40:25.687Z,63.72
2019-02-16T02:42:53.613Z,63.81
2019-02-16T02:45:21.485Z,64.04
2019-02-16T02:47:49.494Z,64.52
2019-02-16T02:50:17.301Z,64.10
2019-02-16T02:52:45.185Z,64.03
2019-02-16T02:55:13.049Z,63.89
2019-02-16T02:57:40.902Z,63.87
2019-02-16T03:00:08.989Z,64.14
2019-02-16T03:02:36.826Z,64.17
2019-02-16T03:05:06.210Z,64.32
2019-02-16T03:07:34.086Z,64.32
2019-02-16T03:10:02.054Z,65.18
2019-02-16T03:12:29.968Z,65.44
2019-02-16T03:14:57.828Z,65.61
2019-02-16T03:17:25.661Z,65.47
2019-02-16T03:19:53.527Z,65.76
2019-02-16T03:22:21.488Z,66.10
2019-02-16T03:24:49.344Z,66.43
2019-02-16T03:28:21.417Z,66.06
2019-02-16T03:31:38.121Z,66.61
2019-02-16T03:34:20.641Z,66.56
2019-02-16T03:38:14.084Z,66.56
2019-02-16T03:40:45.185Z,66.73
2019-02-16T03:43:13.086Z,66.09
2019-02-16T03:45:40.936Z,66.04
2019-02-16T03:48:08.779Z,65.81
2019-02-16T03:50:36.608Z,66.43
2019-02-16T03:53:04.462Z,66.63
2019-02-16T03:55:32.300Z,66.83
2019-02-16T03:58:00.197Z,66.74
2019-02-16T04:00:28.039Z,67.01
2019-02-16T04:02:55.867Z,66.80
2019-02-16T04:05:23.727Z,66.89
2019-02-16T04:07:51.627Z,66.83
2019-02-16T04:10:19.483Z,66.94
2019-02-16T04:12:47.364Z,67.76
2019-02-16T04:15:15.283Z,68.09
2019-02-16T04:17:43.185Z,68.05
2019-02-16T04:20:11.017Z,67.97
2019-02-16T04:22:38.905Z,67.99
2019-02-16T04:25:06.725Z,67.96
2019-02-16T04:27:34.580Z,68.15
2019-02-16T04:30:02.554Z,67.68
2019-02-16T04:32:30.407Z,67.89
2019-02-16T04:34:58.256Z,68.23
2019-02-16T04:37:26.172Z,68.15
2019-02-16T04:39:53.987Z,68.10
2019-02-16T04:42:22.549Z,68.27
2019-02-16T04:44:50.410Z,67.84
2019-02-16T04:47:18.263Z,67.85
2019-02-16T04:49:46.101Z,68.26
2019-02-16T04:52:13.945Z,68.12
2019-02-16T04:54:41.807Z,68.62
2019-02-16T04:57:09.718Z,68.92
2019-02-16T04:59:37.577Z,69.69
2019-02-16T05:02:05.443Z,69.70
2019-02-16T05:04:33.278Z,69.75
2019-02-16T05:07:01.144Z,69.34
2019-02-16T05:09:28.942Z,69.05
2019-02-16T05:11:56.798Z,69.22
2019-02-16T05:14:24.666Z,69.34
2019-02-16T05:16:52.498Z,70.03
2019-02-16T05:19:20.359Z,69.76
2019-02-16T05:21:48.224Z,70.24
2019-02-16T05:24:16.120Z,69.96
2019-02-16T05:26:43.950Z,69.18
2019-02-16T05:29:11.851Z,69.42
2019-02-16T05:31:39.656Z,69.25
2019-02-16T05:34:07.511Z,69.70
2019-02-16T05:36:35.369Z,69.16
2019-02-16T05:39:05.006Z,69.14
2019-02-16T05:41:32.924Z,69.03
2019-02-16T05:44:00.794Z,69.70
2019-02-16T05:46:28.642Z,70.27
2019-02-16T05:48:56.500Z,70.48
2019-02-16T05:51:24.348Z,70.36
2019-02-16T05:53:52.356Z,70.21
2019-02-16T05:56:20.177Z,70.02
2019-02-16T05:58:48.150Z,69.69
2019-02-16T06:01:16.000Z,69.27
2019-02-16T06:03:43.837Z,68.97
2019-02-16T06:06:11.718Z,68.84
2019-02-16T06:08:39.710Z,68.59
2019-02-16T06:11:07.695Z,68.69
2019-02-16T06:13:35.609Z,68.91
2019-02-16T06:16:03.477Z,69.11
2019-02-16T06:18:31.344Z,69.04
2019-02-16T06:20:59.436Z,69.36
2019-02-16T06:23:27.253Z,68.74
2019-02-16T06:25:55.113Z,68.76
2019-02-16T06:28:22.988Z,69.38
2019-02-16T06:30:50.847Z,69.98
2019-02-16T06:33:18.726Z,70.11
2019-02-16T06:35:52.251Z,70.43
2019-02-16T06:38:20.083Z,71.16
2019-02-16T06:40:48.197Z,71.08
2019-02-16T06:43:16.320Z,70.95
2019-02-16T06:45:44.853Z,71.51
2019-02-16T06:48:12.770Z,71.30
2019-02-16T06:50:40.636Z,71.21
2019-02-16T06:53:13.289Z,71.09
2019-02-16T06:55:43.840Z,71.58
2019-02-16T06:58:11.654Z,71.92
2019-02-16T07:00:39.526Z,72.19
2019-02-16T07:03:07.404Z,72.59
2019-02-16T07:05:35.273Z,72.37
2019-02-16T07:08:03.188Z,72.05
2019-02-16T07:10:31.076Z,71.59
2019-02-16T07:12:58.905Z,71.15
2019-02-16T07:15:26.797Z,71.04
2019-02-16T07:18:01.901Z,70.97
2019-02-16T07:20:29.758Z,70.63
2019-02-16T07:22:57.595Z,71.11
2019-02-16T07:25:25.457Z,71.18
2019-02-16T07:27:53.299Z,70.89
2019-02-16T07:30:21.122Z,70.94
2019-02-16T07:32:48.995Z,69.83
2019-02-16T07:35:16.861Z,66.33
2019-02-16T07:37:44.739Z,63.43
2019-02-16T07:40:13.993Z,61.95
2019-02-16T07:42:49.405Z,60.81
2019-02-16T07:45:38.228Z,59.39
2019-02-16T07:48:24.428Z,57.50
2019-02-16T07:50:56.911Z,55.65
2019-02-16T07:53:39.951Z,54.00
2019-02-16T07:56:14.042Z,54.05
2019-02-16T07:59:04.533Z,54.07
2019-02-16T08:01:58.094Z,53.69
2019-02-16T08:04:44.492Z,53.56
2019-02-16T08:07:38.047Z,51.56
2019-02-16T08:10:24.555Z,50.99
2019-02-16T08:13:17.946Z,50.52
2019-02-16T08:16:05.371Z,48.51
2019-02-16T08:18:56.000Z,45.90
2019-02-16T08:21:58.568Z,41.19
2019-02-16T08:25:01.279Z,37.74
2019-02-16T08:27:51.503Z,35.08
2019-02-16T08:30:50.994Z,32.11
2019-02-16T08:33:27.417Z,31.49
2019-02-16T08:36:01.957Z,29.57
2019-02-16T08:38:58.629Z,29.90
2019-02-16T08:41:44.649Z,29.47
2019-02-16T08:44:23.874Z,27.88
2019-02-16T08:47:17.391Z,25.74
2019-02-16T08:49:59.542Z,24.26
2019-02-16T08:52:52.983Z,23.40
2019-02-16T08:55:58.901Z,21.15
2019-02-16T08:58:48.789Z,20.95
2019-02-16T09:01:34.008Z,20.43
2019-02-16T09:04:17.609Z,19.81
2019-02-16T09:06:54.063Z,18.44
2019-02-16T09:09:41.558Z,18.39
2019-02-16T09:12:32.980Z,17.46
2019-02-16T09:15:26.895Z,17.79
2019-02-16T09:18:04.045Z,17.60
2019-02-16T09:20:44.339Z,16.07
2019-02-16T09:23:30.615Z,17.02
2019-02-16T09:26:30.368Z,16.87
2019-02-16T09:29:05.624Z,16.95
2019-02-16T09:31:48.181Z,15.44
2019-02-16T09:34:37.878Z,15.54
2019-02-16T09:37:23.021Z,16.00
2019-02-16T09:40:09.049Z,15.29
2019-02-16T09:42:42.996Z,14.72
2019-02-16T09:45:36.366Z,14.61
2019-02-16T09:48:19.602Z,13.69
2019-02-16T09:50:58.662Z,13.64
2019-02-16T09:53:58.338Z,14.91
2019-02-16T09:56:52.031Z,14.44
2019-02-16T09:59:42.649Z,14.59
2019-02-16T10:02:21.972Z,13.71
2019-02-16T10:05:00.744Z,13.96
2019-02-16T10:07:54.057Z,15.28
2019-02-16T10:10:41.666Z,14.08
2019-02-16T10:13:35.528Z,14.29
2019-02-16T10:16:11.422Z,12.87
2019-02-16T10:19:07.570Z,12.71
2019-02-16T10:22:03.804Z,13.75
2019-02-16T10:25:00.360Z,14.65
2019-02-16T10:27:42.731Z,14.26
2019-02-16T10:30:18.582Z,15.13
2019-02-16T10:32:57.384Z,14.13
2019-02-16T10:35:49.267Z,14.55
2019-02-16T10:38:40.201Z,14.48
2019-02-16T10:41:15.148Z,14.21
2019-02-16T10:44:01.152Z,14.06
2019-02-16T10:46:57.938Z,14.13
2019-02-16T10:49:54.212Z,14.15
2019-02-16T10:52:40.361Z,14.75
2019-02-16T10:55:30.646Z,15.82
2019-02-16T10:58:16.635Z,15.00
2019-02-16T11:01:19.549Z,15.44
2019-02-16T11:03:54.636Z,14.97
2019-02-16T11:06:42.136Z,15.75
2019-02-16T11:09:35.494Z,15.17
2019-02-16T11:12:20.075Z,15.02
2019-02-16T11:15:06.140Z,14.52
2019-02-16T11:17:53.616Z,15.97
2019-02-16T11:20:32.245Z,16.16
2019-02-16T11:23:34.928Z,17.20
2019-02-16T11:26:22.408Z,18.57
2019-02-16T11:29:11.114Z,18.59
2019-02-16T11:32:01.606Z,19.82
2019-02-16T11:34:40.799Z,21.08
2019-02-16T11:37:14.115Z,21.40
2019-02-16T11:39:53.851Z,21.49
2019-02-16T11:42:36.581Z,22.25
2019-02-16T11:45:23.081Z,22.84
2019-02-16T11:48:03.478Z,21.56
2019-02-16T11:51:06.016Z,22.46
2019-02-16T11:53:39.373Z,23.48
2019-02-16T11:56:31.540Z,23.21
2019-02-16T11:59:17.532Z,23.14
2019-02-16T12:02:10.192Z,23.75
2019-02-16T12:05:03.789Z,25.06
2019-02-16T12:07:46.270Z,23.63
2019-02-16T12:10:33.701Z,25.31
2019-02-16T12:13:36.583Z,26.43
2019-02-16T12:16:27.320Z,26.06
2019-02-16T12:19:17.619Z,26.79
2019-02-16T12:21:59.361Z,27.37
2019-02-16T12:25:04.695Z,28.12
2019-02-16T12:27:45.332Z,29.00
2019-02-16T12:30:47.845Z,28.34
2019-02-16T12:33:34.387Z,28.52
2019-02-16T12:36:33.773Z,28.11
2019-02-16T12:39:24.000Z,27.17
2019-02-16T12:42:01.732Z,27.40
2019-02-16T12:44:49.215Z,27.47
2019-02-16T12:47:39.840Z,27.11
2019-02-16T12:50:27.257Z,26.77
2019-02-16T12:53:20.767Z,27.12
2019-02-16T12:56:06.810Z,29.00
2019-02-16T12:58:41.282Z,29.19
2019-02-16T13:01:14.654Z,27.54
2019-02-16T13:04:02.214Z,28.18
2019-02-16T13:06:49.674Z,28.65
2019-02-16T13:09:27.464Z,28.65
2019-02-16T13:12:24.095Z,28.47
2019-02-16T13:15:14.443Z,27.99
2019-02-16T13:18:04.771Z,29.34
2019-02-16T13:20:55.278Z,28.31
2019-02-16T13:23:40.562Z,27.61
2019-02-16T13:26:32.544Z,27.85
2019-02-16T13:29:22.836Z,27.27
2019-02-16T13:32:13.248Z,26.79
2019-02-16T13:34:56.375Z,28.12
2019-02-16T13:37:32.423Z,27.85
2019-02-16T13:40:38.014Z,27.16
2019-02-16T13:43:31.373Z,26.80
2019-02-16T13:46:17.099Z,23.39
2019-02-16T13:49:04.593Z,21.76
2019-02-16T13:51:37.623Z,21.13
2019-02-16T13:54:19.388Z,21.30
2019-02-16T13:57:00.393Z,22.38
2019-02-16T13:59:50.454Z,21.51
2019-02-16T14:02:31.341Z,21.30
2019-02-16T14:05:07.539Z,21.64
2019-02-16T14:07:57.726Z,18.71
2019-02-16T14:10:45.212Z,19.06
2019-02-16T14:13:35.868Z,19.89
2019-02-16T14:16:11.736Z,20.32
2019-02-16T14:18:39.597Z,20.66
2019-02-16T14:21:07.518Z,21.41
2019-02-16T14:23:35.394Z,20.01
2019-02-16T14:26:03.273Z,19.37
2019-02-16T14:28:31.358Z,19.77
2019-02-16T14:30:59.333Z,20.56
2019-02-16T14:33:27.213Z,18.39
2019-02-16T14:35:55.128Z,18.63
2019-02-16T14:38:48.433Z,18.56
2019-02-16T14:41:16.303Z,19.31
2019-02-16T14:43:44.176Z,19.02
2019-02-16T14:46:12.028Z,18.11
2019-02-16T14:48:39.891Z,18.97
2019-02-16T14:51:07.826Z,18.94
2019-02-16T14:53:35.771Z,19.74
2019-02-16T14:56:03.705Z,21.11
2019-02-16T14:58:31.554Z,22.17
2019-02-16T15:00:59.410Z,22.71
2019-02-16T15:03:27.464Z,23.11
2019-02-16T15:05:55.429Z,23.29
2019-02-16T15:08:23.327Z,23.82
2019-02-16T15:10:51.240Z,24.34
2019-02-16T15:13:19.180Z,25.33
2019-02-16T15:15:47.086Z,25.17
2019-02-16T15:18:14.988Z,24.98
2019-02-16T15:20:42.887Z,24.64
2019-02-16T15:23:10.778Z,25.21
2019-02-16T15:25:38.775Z,25.99
2019-02-16T15:28:06.651Z,25.62
2019-02-16T15:30:34.565Z,26.02
2019-02-16T15:33:02.426Z,26.53
2019-02-16T15:35:30.286Z,27.01
2019-02-16T15:37:58.143Z,26.85
2019-02-16T15:40:26.076Z,27.29
2019-02-16T15:42:53.902Z,27.37
2019-02-16T15:45:21.839Z,28.49
2019-02-16T15:47:49.749Z,27.71
2019-02-16T15:50:17.645Z,28.50
2019-02-16T15:52:45.538Z,29.08
2019-02-16T15:55:13.417Z,28.35
2019-02-16T15:57:41.286Z,29.36
2019-02-16T16:00:17.408Z,28.96
2019-02-16T16:02:45.357Z,28.92
2019-02-16T16:05:13.378Z,29.77
2019-02-16T16:07:43.525Z,29.98
2019-02-16T16:10:28.086Z,30.32
2019-02-16T16:13:09.404Z,30.59
2019-02-16T16:16:00.139Z,30.97
2019-02-16T16:18:50.474Z,30.99
2019-02-16T16:21:36.599Z,31.81
2019-02-16T16:24:26.011Z,32.60
2019-02-16T16:27:16.524Z,33.43
2019-02-16T16:30:19.404Z,34.07
2019-02-16T16:33:06.922Z,34.25
2019-02-16T16:36:09.455Z,35.71
2019-02-16T16:38:46.773Z,35.31
2019-02-16T16:41:33.239Z,36.72
2019-02-16T16:44:07.595Z,35.99
2019-02-16T16:46:55.118Z,33.44
2019-02-16T16:49:38.920Z,33.11
2019-02-16T16:52:15.010Z,33.07
2019-02-16T16:54:51.281Z,33.45
2019-02-16T16:57:38.858Z,33.85
2019-02-16T17:00:25.729Z,34.02
2019-02-16T17:03:28.270Z,34.37
2019-02-16T17:06:18.568Z,34.44
2019-02-16T17:09:04.712Z,34.30
2019-02-16T17:11:58.670Z,34.10
2019-02-16T17:14:58.142Z,34.52
2019-02-16T17:17:45.672Z,34.76
2019-02-16T17:20:24.936Z,34.90
2019-02-16T17:23:02.666Z,35.11
2019-02-16T17:25:52.842Z,35.85
2019-02-16T17:28:42.242Z,36.25
2019-02-16T17:31:24.404Z,37.28
2019-02-16T17:34:20.576Z,37.82
2019-02-16T17:37:05.085Z,37.71
2019-02-16T17:39:58.815Z,38.16
2019-02-16T17:42:58.372Z,38.62
2019-02-16T17:45:44.573Z,38.97
2019-02-16T17:48:30.777Z,39.70
2019-02-16T17:51:19.564Z,39.22
2019-02-16T17:54:08.410Z,39.00
2019-02-16T17:57:04.071Z,39.15
2019-02-16T17:59:40.434Z,39.67
2019-02-16T18:02:34.233Z,39.90
2019-02-16T18:05:18.133Z,40.01
2019-02-16T18:08:20.833Z,40.07
2019-02-16T18:10:59.829Z,40.58
2019-02-16T18:13:39.503Z,41.37
2019-02-16T18:16:35.980Z,41.74
2019-02-16T18:19:26.434Z,42.16
2019-02-16T18:22:06.232Z,42.30
2019-02-16T18:25:02.545Z,43.01
2019-02-16T18:27:40.841Z,43.17
2019-02-16T18:30:28.331Z,43.05
2019-02-16T18:33:08.203Z,43.36
2019-02-16T18:36:02.160Z,43.33
2019-02-16T18:38:48.047Z,43.42
2019-02-16T18:41:44.694Z,43.79
2019-02-16T18:44:41.005Z,43.95
2019-02-16T18:47:28.848Z,44.28
2019-02-16T18:50:13.081Z,44.47
2019-02-16T18:52:59.232Z,44.49
2019-02-16T18:55:45.586Z,44.99
2019-02-16T18:58:33.077Z,44.93
2019-02-16T19:01:19.287Z,45.20
2019-02-16T19:03:57.130Z,45.24
2019-02-16T19:06:47.412Z,45.74
2019-02-16T19:09:34.867Z,45.54
2019-02-16T19:12:31.280Z,45.28
2019-02-16T19:15:24.644Z,44.78
2019-02-16T19:18:04.492Z,44.79
2019-02-16T19:21:01.310Z,44.81
2019-02-16T19:23:54.605Z,45.28
2019-02-16T19:26:51.102Z,45.21
2019-02-16T19:29:44.589Z,45.37
2019-02-16T19:32:31.065Z,45.90
2019-02-16T19:35:17.292Z,46.83
2019-02-16T19:37:56.871Z,46.95
2019-02-16T19:40:33.033Z,46.99
2019-02-16T19:43:23.180Z,46.81
2019-02-16T19:46:19.434Z,46.19
2019-02-16T19:49:06.966Z,45.93
2019-02-16T19:52:06.351Z,46.01
2019-02-16T19:54:50.369Z,45.85
2019-02-16T19:57:29.328Z,45.95
2019-02-16T20:00:16.817Z,46.14
2019-02-16T20:03:04.277Z,46.21
2019-02-16T20:06:01.263Z,46.63
2019-02-16T20:08:44.076Z,46.37
2019-02-16T20:11:30.296Z,46.95
2019-02-16T20:14:18.296Z,47.07
2019-02-16T20:17:18.155Z,47.12
2019-02-16T20:20:23.763Z,47.95
2019-02-16T20:23:17.233Z,48.01
2019-02-16T20:26:03.420Z,49.48
2019-02-16T20:29:06.056Z,49.35
2019-02-16T20:31:59.914Z,49.78
2019-02-16T20:34:38.215Z,50.41
2019-02-16T20:37:31.829Z,50.84
2019-02-16T20:40:20.831Z,51.00
2019-02-16T20:43:20.376Z,50.98
2019-02-16T20:46:07.862Z,50.85
2019-02-16T20:48:48.598Z,50.29
2019-02-16T20:51:27.634Z,50.41
2019-02-16T20:54:15.135Z,49.10
2019-02-16T20:56:59.051Z,49.80
2019-02-16T20:59:49.795Z,50.92
2019-02-16T21:02:46.313Z,52.33
2019-02-16T21:05:45.663Z,52.71
2019-02-16T21:08:22.233Z,53.27
2019-02-16T21:11:06.840Z,54.09
2019-02-16T21:13:57.368Z,54.28
2019-02-16T21:16:47.508Z,55.30
2019-02-16T21:19:40.872Z,56.37
2019-02-16T21:22:37.539Z,56.29
2019-02-16T21:25:14.897Z,56.81
2019-02-16T21:27:57.753Z,56.72
2019-02-16T21:30:34.553Z,57.30
2019-02-16T21:33:36.371Z,57.32
2019-02-16T21:36:13.746Z,57.28
2019-02-16T21:39:02.755Z,57.23
2019-02-16T21:41:42.867Z,57.50
2019-02-16T21:44:30.322Z,57.57
2019-02-16T21:47:26.658Z,55.57
2019-02-16T21:50:26.206Z,53.71
2019-02-16T21:53:21.662Z,56.17
2019-02-16T21:56:07.993Z,55.41
2019-02-16T21:58:55.623Z,52.02
2019-02-16T22:01:58.252Z,49.88
2019-02-16T22:04:35.736Z,50.53
2019-02-16T22:07:11.259Z,50.13
2019-02-16T22:09:58.081Z,49.50
2019-02-16T22:12:48.362Z,48.50
2019-02-16T22:15:16.247Z,49.18
2019-02-16T22:17:44.128Z,48.55
2019-02-16T22:20:12.033Z,49.38
2019-02-16T22:22:39.928Z,50.55
2019-02-16T22:25:07.914Z,49.82
2019-02-16T22:27:35.806Z,49.53
2019-02-16T22:30:04.265Z,49.72
2019-02-16T22:32:32.139Z,50.77
2019-02-16T22:35:00.051Z,50.04
2019-02-16T22:37:28.016Z,49.64
2019-02-16T22:39:55.913Z,50.17
2019-02-16T22:42:23.888Z,51.71
2019-02-16T22:44:51.735Z,53.44
2019-02-16T22:47:19.663Z,52.32
2019-02-16T22:49:47.504Z,53.39
2019-02-16T22:52:15.352Z,53.23
2019-02-16T22:54:43.301Z,53.47
2019-02-16T22:57:11.185Z,53.01
2019-02-16T22:59:39.046Z,52.98
2019-02-16T23:02:08.669Z,52.76
2019-02-16T23:04:36.674Z,52.68
2019-02-16T23:07:04.691Z,52.73
2019-02-16T23:09:32.613Z,53.59
2019-02-16T23:12:00.912Z,53.78
2019-02-16T23:14:28.803Z,54.28
2019-02-16T23:16:56.933Z,55.18
2019-02-16T23:19:24.814Z,55.47
2019-02-16T23:21:52.727Z,55.55
2019-02-16T23:24:20.620Z,55.81
2019-02-16T23:26:48.500Z,55.95
2019-02-16T23:29:16.378Z,55.52
2019-02-16T23:31:44.253Z,55.83
2019-02-16T23:34:12.128Z,55.92
2019-02-16T23:36:40.163Z,55.35
2019-02-16T23:39:08.968Z,55.38
2019-02-16T23:41:36.831Z,55.32
2019-02-16T23:44:05.056Z,54.46
2019-02-16T23:46:32.978Z,53.79
2019-02-16T23:49:00.857Z,53.65
2019-02-16T23:51:28.714Z,53.70
2019-02-16T23:53:56.960Z,53.39
2019-02-16T23:56:24.877Z,53.33
2019-02-16T23:58:52.823Z,53.52
